createdAt,value
2018-03-11T00:00:58.707Z,983.66
2018-03-11T00:01:58.658Z,983.67
2018-03-11T00:02:58.643Z,983.64
2018-03-11T00:03:58.633Z,983.64
2018-03-11T00:04:58.625Z,983.64
2018-03-11T00:05:58.609Z,983.62
2018-03-11T00:06:58.597Z,983.62
2018-03-11T00:07:58.604Z,983.59
2018-03-11T00:08:58.576Z,983.57
2018-03-11T00:09:58.585Z,983.56
2018-03-11T00:10:58.553Z,983.56
2018-03-11T00:11:58.542Z,983.54
2018-03-11T00:12:58.545Z,983.58
2018-03-11T00:13:58.526Z,983.59
2018-03-11T00:14:58.510Z,983.60
2018-03-11T00:15:58.500Z,983.57
2018-03-11T00:16:58.486Z,983.54
2018-03-11T00:17:58.474Z,983.55
2018-03-11T00:18:58.463Z,983.56
2018-03-11T00:19:58.452Z,983.56
2018-03-11T00:20:58.447Z,983.54
2018-03-11T00:21:58.429Z,983.54
2018-03-11T00:22:58.432Z,983.54
2018-03-11T00:23:58.467Z,983.56
2018-03-11T00:24:58.403Z,983.54
2018-03-11T00:25:58.384Z,983.52
2018-03-11T00:26:58.400Z,983.56
2018-03-11T00:27:58.392Z,983.49
2018-03-11T00:28:58.352Z,983.45
2018-03-11T00:29:58.396Z,983.42
2018-03-11T00:30:58.328Z,983.45
2018-03-11T00:31:58.318Z,983.40
2018-03-11T00:32:58.319Z,983.43
2018-03-11T00:33:58.294Z,983.39
2018-03-11T00:34:58.283Z,983.37
2018-03-11T00:35:58.272Z,983.31
2018-03-11T00:36:58.261Z,983.30
2018-03-11T00:37:58.257Z,983.32
2018-03-11T00:38:58.272Z,983.29
2018-03-11T00:39:58.227Z,983.29
2018-03-11T00:40:58.216Z,983.27
2018-03-11T00:41:58.204Z,983.28
2018-03-11T00:42:58.209Z,983.28
2018-03-11T00:43:58.182Z,983.26
2018-03-11T00:44:58.189Z,983.23
2018-03-11T00:45:58.163Z,983.19
2018-03-11T00:46:58.148Z,983.13
2018-03-11T00:47:58.137Z,983.18
2018-03-11T00:48:58.128Z,983.16
2018-03-11T00:49:58.115Z,983.13
2018-03-11T00:50:58.103Z,983.09
2018-03-11T00:51:58.095Z,983.10
2018-03-11T00:52:58.083Z,983.12
2018-03-11T00:53:58.087Z,983.14
2018-03-11T00:54:58.062Z,983.13
2018-03-11T00:55:58.090Z,983.11
2018-03-11T00:56:58.037Z,983.09
2018-03-11T00:57:58.034Z,983.10
2018-03-11T00:58:58.061Z,983.07
2018-03-11T00:59:58.002Z,983.07
2018-03-11T01:00:57.992Z,983.07
2018-03-11T01:01:58.002Z,983.05
2018-03-11T01:02:57.966Z,983.05
2018-03-11T01:03:57.955Z,983.02
2018-03-11T01:04:57.943Z,982.99
2018-03-11T01:05:57.932Z,983.02
2018-03-11T01:06:57.925Z,982.98
2018-03-11T01:07:57.925Z,983.00
2018-03-11T01:08:57.954Z,982.98
2018-03-11T01:09:57.894Z,982.95
2018-03-11T01:10:57.875Z,982.91
2018-03-11T01:11:57.890Z,982.90
2018-03-11T01:12:57.880Z,982.85
2018-03-11T01:13:57.840Z,982.82
2018-03-11T01:14:58.044Z,982.76
2018-03-11T01:15:57.818Z,982.72
2018-03-11T01:16:57.807Z,982.68
2018-03-11T01:17:57.810Z,982.67
2018-03-11T01:18:57.784Z,982.67
2018-03-11T01:19:57.772Z,982.68
2018-03-11T01:20:57.762Z,982.70
2018-03-11T01:21:57.749Z,982.71
2018-03-11T01:22:57.749Z,982.64
2018-03-11T01:23:57.760Z,982.67
2018-03-11T01:24:57.715Z,982.62
2018-03-11T01:25:57.703Z,982.59
2018-03-11T01:26:57.692Z,982.57
2018-03-11T01:27:57.699Z,982.58
2018-03-11T01:28:57.669Z,982.55
2018-03-11T01:29:57.676Z,982.53
2018-03-11T01:30:57.645Z,982.51
2018-03-11T01:31:57.634Z,982.48
2018-03-11T01:32:57.624Z,982.46
2018-03-11T01:33:57.610Z,982.46
2018-03-11T01:34:57.612Z,982.40
2018-03-11T01:35:57.588Z,982.40
2018-03-11T01:36:57.577Z,982.43
2018-03-11T01:37:57.564Z,982.42
2018-03-11T01:38:57.576Z,982.34
2018-03-11T01:39:57.542Z,982.36
2018-03-11T01:40:57.738Z,982.27
2018-03-11T01:41:57.518Z,982.30
2018-03-11T01:42:57.522Z,982.30
2018-03-11T01:44:57.494Z,982.26
2018-03-11T01:45:57.472Z,982.21
2018-03-11T01:46:57.492Z,982.19
2018-03-11T01:47:57.451Z,982.21
2018-03-11T01:48:57.439Z,982.16
2018-03-11T01:49:57.427Z,982.14
2018-03-11T01:50:57.416Z,982.16
2018-03-11T01:51:57.405Z,982.07
2018-03-11T01:52:57.406Z,982.03
2018-03-11T01:53:57.398Z,982.01
2018-03-11T01:54:57.371Z,981.93
2018-03-11T01:55:57.371Z,981.91
2018-03-11T01:56:57.348Z,981.88
2018-03-11T01:57:57.345Z,981.84
2018-03-11T01:58:57.360Z,981.85
2018-03-11T01:59:57.313Z,981.85
2018-03-11T02:00:57.303Z,981.79
2018-03-11T02:01:57.291Z,981.80
2018-03-11T02:02:57.280Z,981.81
2018-03-11T02:03:57.268Z,981.78
2018-03-11T02:04:57.257Z,981.79
2018-03-11T02:05:57.245Z,981.77
2018-03-11T02:06:57.237Z,981.71
2018-03-11T02:07:57.229Z,981.70
2018-03-11T02:08:57.253Z,981.67
2018-03-11T02:09:57.201Z,981.62
2018-03-11T02:10:57.188Z,981.62
2018-03-11T02:11:57.176Z,981.59
2018-03-11T02:12:57.167Z,981.47
2018-03-11T02:13:57.154Z,981.49
2018-03-11T02:14:57.164Z,981.44
2018-03-11T02:15:57.130Z,981.42
2018-03-11T02:16:57.119Z,981.35
2018-03-11T02:17:57.106Z,981.28
2018-03-11T02:18:57.095Z,981.27
2018-03-11T02:19:57.084Z,981.23
2018-03-11T02:20:57.073Z,981.25
2018-03-11T02:21:57.060Z,981.22
2018-03-11T02:22:57.050Z,981.23
2018-03-11T02:23:57.067Z,981.24
2018-03-11T02:24:57.028Z,981.22
2018-03-11T02:25:57.065Z,981.27
2018-03-11T02:26:57.004Z,981.26
2018-03-11T02:27:56.995Z,981.22
2018-03-11T02:28:56.990Z,981.22
2018-03-11T02:29:56.983Z,981.25
2018-03-11T02:30:56.959Z,981.25
2018-03-11T02:31:56.986Z,981.24
2018-03-11T02:32:56.936Z,981.21
2018-03-11T02:33:56.923Z,981.22
2018-03-11T02:34:56.913Z,981.21
2018-03-11T02:35:56.902Z,981.22
2018-03-11T02:36:56.890Z,981.25
2018-03-11T02:37:56.877Z,981.31
2018-03-11T02:38:56.885Z,981.37
2018-03-11T02:39:56.855Z,981.39
2018-03-11T02:40:56.860Z,981.46
2018-03-11T02:41:56.832Z,981.44
2018-03-11T02:42:56.824Z,981.39
2018-03-11T02:43:56.850Z,981.39
2018-03-11T02:44:56.801Z,981.38
2018-03-11T02:45:56.787Z,981.40
2018-03-11T02:46:56.777Z,981.33
2018-03-11T02:47:56.764Z,981.35
2018-03-11T02:48:56.753Z,981.32
2018-03-11T02:49:56.741Z,981.35
2018-03-11T02:50:56.729Z,981.31
2018-03-11T02:51:56.723Z,981.33
2018-03-11T02:52:56.710Z,981.34
2018-03-11T02:53:56.708Z,981.31
2018-03-11T02:54:56.740Z,981.28
2018-03-11T02:55:56.678Z,981.19
2018-03-11T02:56:56.662Z,981.16
2018-03-11T02:57:56.673Z,981.11
2018-03-11T02:58:56.666Z,981.06
2018-03-11T02:59:56.627Z,981.00
2018-03-11T03:00:56.662Z,981.01
2018-03-11T03:01:56.605Z,980.97
2018-03-11T03:02:56.594Z,980.87
2018-03-11T03:03:56.593Z,980.87
2018-03-11T03:04:56.575Z,980.80
2018-03-11T03:05:56.559Z,980.85
2018-03-11T03:06:56.549Z,980.85
2018-03-11T03:07:56.542Z,980.80
2018-03-11T03:08:56.563Z,980.76
2018-03-11T03:09:56.523Z,980.78
2018-03-11T03:10:56.504Z,980.75
2018-03-11T03:11:56.516Z,980.73
2018-03-11T03:12:56.482Z,980.77
2018-03-11T03:13:56.473Z,980.74
2018-03-11T03:14:56.489Z,980.75
2018-03-11T03:15:56.448Z,980.69
2018-03-11T03:16:56.439Z,980.65
2018-03-11T03:17:56.426Z,980.59
2018-03-11T03:18:56.414Z,980.64
2018-03-11T03:19:56.407Z,980.58
2018-03-11T03:20:56.393Z,980.55
2018-03-11T03:21:56.381Z,980.52
2018-03-11T03:22:56.370Z,980.48
2018-03-11T03:23:56.388Z,980.52
2018-03-11T03:24:56.349Z,980.52
2018-03-11T03:25:56.383Z,980.51
2018-03-11T03:26:56.325Z,980.53
2018-03-11T03:27:56.319Z,980.47
2018-03-11T03:28:56.311Z,980.41
2018-03-11T03:29:56.303Z,980.41
2018-03-11T03:30:56.283Z,980.35
2018-03-11T03:31:56.301Z,980.28
2018-03-11T03:32:56.261Z,980.26
2018-03-11T03:33:56.249Z,980.37
2018-03-11T03:34:56.238Z,980.41
2018-03-11T03:35:56.228Z,980.46
2018-03-11T03:36:56.216Z,980.40
2018-03-11T03:37:56.223Z,980.40
2018-03-11T03:38:56.396Z,980.34
2018-03-11T03:39:56.183Z,980.28
2018-03-11T03:40:56.181Z,980.22
2018-03-11T03:41:56.161Z,980.20
2018-03-11T03:42:56.156Z,980.21
2018-03-11T03:43:56.169Z,980.18
2018-03-11T03:44:56.128Z,980.19
2018-03-11T03:45:56.117Z,980.18
2018-03-11T03:46:56.105Z,980.15
2018-03-11T03:47:56.095Z,980.15
2018-03-11T03:48:56.083Z,980.16
2018-03-11T03:49:56.072Z,980.16
2018-03-11T03:50:56.061Z,980.13
2018-03-11T03:51:56.051Z,980.14
2018-03-11T03:52:56.064Z,980.05
2018-03-11T03:53:56.029Z,979.98
2018-03-11T03:54:56.236Z,979.97
2018-03-11T03:55:56.011Z,979.88
2018-03-11T03:56:55.996Z,979.81
2018-03-11T03:57:55.996Z,979.81
2018-03-11T03:58:55.987Z,979.79
2018-03-11T03:59:55.965Z,979.81
2018-03-11T04:00:55.988Z,979.75
2018-03-11T04:01:55.941Z,979.70
2018-03-11T04:02:55.930Z,979.68
2018-03-11T04:03:55.919Z,979.74
2018-03-11T04:04:55.909Z,979.69
2018-03-11T04:05:55.897Z,979.74
2018-03-11T04:06:55.886Z,979.71
2018-03-11T04:07:55.885Z,979.65
2018-03-11T04:08:56.090Z,979.66
2018-03-11T04:09:55.856Z,979.68
2018-03-11T04:10:55.841Z,979.67
2018-03-11T04:11:55.850Z,979.70
2018-03-11T04:12:55.844Z,979.59
2018-03-11T04:13:55.807Z,979.64
2018-03-11T04:15:55.787Z,979.53
2018-03-11T04:16:55.776Z,979.46
2018-03-11T04:17:55.796Z,979.45
2018-03-11T04:18:55.752Z,979.43
2018-03-11T04:19:55.742Z,979.44
2018-03-11T04:20:55.731Z,979.47
2018-03-11T04:21:55.740Z,979.40
2018-03-11T04:22:55.713Z,979.41
2018-03-11T04:23:55.732Z,979.44
2018-03-11T04:24:55.689Z,979.54
2018-03-11T04:25:55.675Z,979.57
2018-03-11T04:26:55.665Z,979.61
2018-03-11T04:27:55.661Z,979.53
2018-03-11T04:28:55.646Z,979.51
2018-03-11T04:29:55.638Z,979.46
2018-03-11T04:30:55.619Z,979.37
2018-03-11T04:31:55.608Z,979.33
2018-03-11T04:32:55.598Z,979.30
2018-03-11T04:33:55.589Z,979.24
2018-03-11T04:34:55.574Z,979.25
2018-03-11T04:35:55.567Z,979.32
2018-03-11T04:36:55.569Z,979.39
2018-03-11T04:37:55.771Z,979.49
2018-03-11T04:38:55.541Z,979.65
2018-03-11T04:39:55.518Z,979.64
2018-03-11T04:40:55.537Z,979.57
2018-03-11T04:41:55.523Z,979.58
2018-03-11T04:42:55.485Z,979.59
2018-03-11T04:43:55.696Z,979.60
2018-03-11T04:44:55.461Z,979.61
2018-03-11T04:45:55.449Z,979.63
2018-03-11T04:46:55.447Z,979.69
2018-03-11T04:47:55.427Z,979.69
2018-03-11T04:48:55.415Z,979.72
2018-03-11T04:49:55.403Z,979.73
2018-03-11T04:50:55.391Z,979.65
2018-03-11T04:51:55.388Z,979.62
2018-03-11T04:52:55.408Z,979.67
2018-03-11T04:53:55.358Z,979.64
2018-03-11T04:54:55.344Z,979.70
2018-03-11T04:55:55.335Z,979.65
2018-03-11T04:56:55.336Z,979.63
2018-03-11T04:57:55.309Z,979.59
2018-03-11T04:58:55.324Z,979.54
2018-03-11T04:59:55.288Z,979.50
2018-03-11T05:00:55.275Z,979.46
2018-03-11T05:01:55.264Z,979.43
2018-03-11T05:02:55.252Z,979.43
2018-03-11T05:03:55.241Z,979.33
2018-03-11T05:04:55.230Z,979.36
2018-03-11T05:05:55.219Z,979.36
2018-03-11T05:06:55.207Z,979.33
2018-03-11T05:07:55.206Z,979.36
2018-03-11T05:08:55.242Z,979.35
2018-03-11T05:09:55.174Z,979.36
2018-03-11T05:10:55.161Z,979.32
2018-03-11T05:11:55.176Z,979.29
2018-03-11T05:12:55.162Z,979.23
2018-03-11T05:13:55.126Z,979.18
2018-03-11T05:14:55.162Z,979.10
2018-03-11T05:15:55.104Z,979.03
2018-03-11T05:16:55.094Z,979.01
2018-03-11T05:17:55.086Z,979.01
2018-03-11T05:18:55.071Z,978.98
2018-03-11T05:19:55.060Z,978.95
2018-03-11T05:20:55.049Z,978.89
2018-03-11T05:21:55.060Z,978.94
2018-03-11T05:22:55.031Z,978.92
2018-03-11T05:23:55.048Z,978.89
2018-03-11T05:24:55.005Z,978.86
2018-03-11T05:25:54.992Z,978.88
2018-03-11T05:26:54.980Z,978.84
2018-03-11T05:27:54.987Z,978.84
2018-03-11T05:28:54.958Z,978.83
2018-03-11T05:29:54.958Z,978.78
2018-03-11T05:30:54.935Z,978.76
2018-03-11T05:31:54.924Z,978.75
2018-03-11T05:32:54.913Z,978.76
2018-03-11T05:33:54.902Z,978.70
2018-03-11T05:34:54.889Z,978.69
2018-03-11T05:35:54.878Z,978.69
2018-03-11T05:36:54.886Z,978.69
2018-03-11T05:37:54.855Z,978.72
2018-03-11T05:38:54.870Z,978.68
2018-03-11T05:39:54.867Z,978.67
2018-03-11T05:40:54.822Z,978.65
2018-03-11T05:41:55.039Z,978.67
2018-03-11T05:42:54.801Z,978.61
2018-03-11T05:43:54.788Z,978.68
2018-03-11T05:44:54.790Z,978.65
2018-03-11T05:45:54.764Z,978.63
2018-03-11T05:46:54.753Z,978.69
2018-03-11T05:47:54.742Z,978.69
2018-03-11T05:48:54.757Z,978.70
2018-03-11T05:49:54.719Z,978.69
2018-03-11T05:50:54.935Z,978.65
2018-03-11T05:51:54.696Z,978.62
2018-03-11T05:52:54.685Z,978.57
2018-03-11T05:53:54.681Z,978.57
2018-03-11T05:54:54.669Z,978.54
2018-03-11T05:55:54.650Z,978.50
2018-03-11T05:56:54.662Z,978.53
2018-03-11T05:57:54.627Z,978.51
2018-03-11T05:58:54.615Z,978.50
2018-03-11T05:59:54.605Z,978.43
2018-03-11T06:00:54.594Z,978.40
2018-03-11T06:01:54.629Z,978.40
2018-03-11T06:02:54.570Z,978.38
2018-03-11T06:03:54.762Z,978.38
2018-03-11T06:04:54.548Z,978.35
2018-03-11T06:05:54.608Z,978.39
2018-03-11T06:06:54.525Z,978.38
2018-03-11T06:07:54.552Z,978.39
2018-03-11T06:08:54.509Z,978.40
2018-03-11T06:09:54.694Z,978.37
2018-03-11T06:10:54.480Z,978.39
2018-03-11T06:11:54.472Z,978.34
2018-03-11T06:12:54.458Z,978.36
2018-03-11T06:13:54.445Z,978.36
2018-03-11T06:14:54.439Z,978.42
2018-03-11T06:15:54.424Z,978.35
2018-03-11T06:16:54.447Z,978.36
2018-03-11T06:17:54.402Z,978.34
2018-03-11T06:18:54.396Z,978.34
2018-03-11T06:19:54.380Z,978.39
2018-03-11T06:20:54.419Z,978.32
2018-03-11T06:21:54.355Z,978.37
2018-03-11T06:22:54.550Z,978.27
2018-03-11T06:23:54.333Z,978.22
2018-03-11T06:24:54.322Z,978.21
2018-03-11T06:25:54.309Z,978.17
2018-03-11T06:26:54.403Z,978.16
2018-03-11T06:27:54.286Z,978.15
2018-03-11T06:28:54.277Z,978.06
2018-03-11T06:29:54.306Z,978.06
2018-03-11T06:30:54.252Z,978.04
2018-03-11T06:31:54.241Z,978.03
2018-03-11T06:32:54.233Z,978.03
2018-03-11T06:33:54.218Z,978.06
2018-03-11T06:34:54.207Z,978.08
2018-03-11T06:35:54.196Z,978.07
2018-03-11T06:36:54.190Z,978.00
2018-03-11T06:37:54.173Z,978.04
2018-03-11T06:38:54.186Z,978.05
2018-03-11T06:39:54.152Z,978.07
2018-03-11T06:40:54.342Z,978.05
2018-03-11T06:41:54.127Z,978.02
2018-03-11T06:42:54.116Z,977.95
2018-03-11T06:43:54.204Z,977.90
2018-03-11T06:44:54.093Z,977.87
2018-03-11T06:45:54.081Z,977.86
2018-03-11T06:46:54.123Z,977.76
2018-03-11T06:47:54.060Z,977.77
2018-03-11T06:48:54.049Z,977.75
2018-03-11T06:49:54.035Z,977.80
2018-03-11T06:50:54.025Z,977.76
2018-03-11T06:51:54.013Z,977.70
2018-03-11T06:52:54.002Z,977.76
2018-03-11T06:53:53.994Z,977.81
2018-03-11T06:54:53.982Z,977.78
2018-03-11T06:55:53.968Z,977.73
2018-03-11T06:56:53.957Z,977.74
2018-03-11T06:57:54.037Z,977.75
2018-03-11T06:58:53.933Z,977.74
2018-03-11T06:59:53.922Z,977.80
2018-03-11T07:00:54.115Z,977.77
2018-03-11T07:01:53.903Z,977.78
2018-03-11T07:02:53.890Z,977.78
2018-03-11T07:03:53.924Z,977.79
2018-03-11T07:04:53.867Z,977.76
2018-03-11T07:05:53.857Z,977.79
2018-03-11T07:06:53.848Z,977.76
2018-03-11T07:07:53.841Z,977.77
2018-03-11T07:08:53.822Z,977.76
2018-03-11T07:09:53.810Z,977.76
2018-03-11T07:10:53.843Z,977.81
2018-03-11T07:11:53.789Z,977.79
2018-03-11T07:12:53.984Z,977.82
2018-03-11T07:13:53.768Z,977.84
2018-03-11T07:14:53.758Z,977.87
2018-03-11T07:15:53.962Z,977.82
2018-03-11T07:16:53.735Z,977.83
2018-03-11T07:17:53.725Z,977.76
2018-03-11T07:18:53.760Z,977.77
2018-03-11T07:19:53.707Z,977.69
2018-03-11T07:20:53.694Z,977.75
2018-03-11T07:21:53.722Z,977.78
2018-03-11T07:22:53.670Z,977.87
2018-03-11T07:23:53.660Z,977.81
2018-03-11T07:24:53.650Z,977.81
2018-03-11T07:25:53.638Z,977.82
2018-03-11T07:26:53.632Z,977.79
2018-03-11T07:27:53.624Z,977.81
2018-03-11T07:28:53.609Z,977.79
2018-03-11T07:29:53.654Z,977.81
2018-03-11T07:30:53.587Z,977.86
2018-03-11T07:31:53.579Z,977.92
2018-03-11T07:32:53.654Z,977.88
2018-03-11T07:33:53.559Z,977.93
2018-03-11T07:34:53.547Z,977.92
2018-03-11T07:35:53.565Z,977.88
2018-03-11T07:36:53.528Z,977.92
2018-03-11T07:37:53.516Z,977.91
2018-03-11T07:38:53.508Z,977.88
2018-03-11T07:39:53.498Z,977.95
2018-03-11T07:40:53.488Z,977.98
2018-03-11T07:41:53.478Z,977.99
2018-03-11T07:42:53.467Z,978.04
2018-03-11T07:43:53.496Z,977.98
2018-03-11T07:44:53.451Z,977.91
2018-03-11T07:45:53.438Z,977.92
2018-03-11T07:46:53.465Z,977.90
2018-03-11T07:47:53.421Z,977.84
2018-03-11T07:48:53.410Z,977.79
2018-03-11T07:49:53.437Z,978.00
2018-03-11T07:50:53.390Z,977.83
2018-03-11T07:51:53.382Z,977.81
2018-03-11T07:52:53.371Z,977.83
2018-03-11T07:53:53.360Z,977.86
2018-03-11T07:54:53.352Z,977.92
2018-03-11T07:55:53.341Z,977.90
2018-03-11T07:56:53.332Z,977.90
2018-03-11T07:57:53.396Z,977.92
2018-03-11T07:58:53.315Z,977.90
2018-03-11T07:59:53.304Z,977.88
2018-03-11T08:00:53.399Z,977.87
2018-03-11T08:01:53.284Z,977.86
2018-03-11T08:02:53.275Z,977.86
2018-03-11T08:03:53.313Z,977.88
2018-03-11T08:04:53.261Z,977.88
2018-03-11T08:05:53.251Z,977.88
2018-03-11T08:06:53.238Z,977.94
2018-03-11T08:07:53.229Z,977.87
2018-03-11T08:08:53.221Z,977.91
2018-03-11T08:09:53.210Z,977.87
2018-03-11T08:10:53.299Z,977.92
2018-03-11T08:11:53.193Z,977.95
2018-03-11T08:12:53.185Z,977.97
2018-03-11T08:13:53.267Z,978.01
2018-03-11T08:14:53.166Z,978.06
2018-03-11T08:15:53.157Z,978.01
2018-03-11T08:16:53.150Z,978.01
2018-03-11T08:17:53.140Z,977.92
2018-03-11T08:18:53.130Z,977.91
2018-03-11T08:19:53.121Z,977.81
2018-03-11T08:20:53.117Z,977.86
2018-03-11T08:21:53.103Z,977.91
2018-03-11T08:22:53.099Z,977.91
2018-03-11T08:23:53.086Z,977.98
2018-03-11T08:24:53.133Z,977.94
2018-03-11T08:25:53.147Z,977.99
2018-03-11T08:26:53.059Z,978.02
2018-03-11T08:27:53.259Z,978.05
2018-03-11T08:28:53.042Z,978.04
2018-03-11T08:29:53.053Z,978.07
2018-03-11T08:30:53.024Z,978.07
2018-03-11T08:31:53.016Z,978.03
2018-03-11T08:32:53.007Z,978.02
2018-03-11T08:33:52.998Z,978.10
2018-03-11T08:34:52.990Z,978.14
2018-03-11T08:35:52.980Z,978.06
2018-03-11T08:36:52.972Z,978.09
2018-03-11T08:37:52.963Z,978.13
2018-03-11T08:38:53.161Z,978.16
2018-03-11T08:39:52.945Z,978.10
2018-03-11T08:40:52.937Z,978.12
2018-03-11T08:41:52.951Z,978.13
2018-03-11T08:42:52.921Z,978.18
2018-03-11T08:43:52.912Z,978.16
2018-03-11T08:44:52.907Z,978.17
2018-03-11T08:45:52.892Z,978.17
2018-03-11T08:46:52.883Z,978.17
2018-03-11T08:47:52.874Z,978.11
2018-03-11T08:48:52.866Z,978.08
2018-03-11T08:49:52.937Z,978.16
2018-03-11T08:50:52.848Z,978.18
2018-03-11T08:51:52.839Z,978.17
2018-03-11T08:52:52.874Z,978.15
2018-03-11T08:53:52.848Z,978.16
2018-03-11T08:54:52.812Z,978.18
2018-03-11T08:55:52.832Z,978.14
2018-03-11T08:56:52.795Z,978.22
2018-03-11T08:57:52.785Z,978.18
2018-03-11T08:58:52.776Z,978.13
2018-03-11T08:59:52.767Z,978.15
2018-03-11T09:00:52.759Z,978.13
2018-03-11T09:01:52.749Z,978.22
2018-03-11T09:02:52.740Z,978.17
2018-03-11T09:03:52.812Z,978.21
2018-03-11T09:04:52.723Z,978.12
2018-03-11T09:05:52.714Z,978.24
2018-03-11T09:06:52.765Z,978.24
2018-03-11T09:07:52.699Z,978.12
2018-03-11T09:08:52.687Z,978.14
2018-03-11T09:09:52.677Z,978.20
2018-03-11T09:10:52.919Z,978.08
2018-03-11T09:11:52.663Z,978.17
2018-03-11T09:12:52.654Z,978.11
2018-03-11T09:13:52.694Z,978.13
2018-03-11T09:14:52.634Z,978.16
2018-03-11T09:15:52.626Z,978.07
2018-03-11T09:16:52.637Z,978.14
2018-03-11T09:17:52.609Z,978.08
2018-03-11T09:18:52.602Z,977.99
2018-03-11T09:19:52.593Z,978.00
2018-03-11T09:20:52.587Z,977.98
2018-03-11T09:21:52.574Z,977.90
2018-03-11T09:22:52.566Z,977.86
2018-03-11T09:23:52.558Z,977.84
2018-03-11T09:24:52.635Z,977.85
2018-03-11T09:25:52.542Z,977.94
2018-03-11T09:26:52.534Z,977.92
2018-03-11T09:27:52.732Z,977.86
2018-03-11T09:28:52.518Z,977.91
2018-03-11T09:29:52.509Z,977.96
2018-03-11T09:30:52.528Z,978.05
2018-03-11T09:31:52.496Z,978.06
2018-03-11T09:32:52.487Z,978.02
2018-03-11T09:33:52.476Z,978.05
2018-03-11T09:34:52.524Z,978.05
2018-03-11T09:35:52.461Z,978.02
2018-03-11T09:36:52.454Z,978.01
2018-03-11T09:37:52.447Z,977.99
2018-03-11T09:38:52.526Z,977.94
2018-03-11T09:39:52.428Z,978.00
2018-03-11T09:40:52.421Z,977.97
2018-03-11T09:41:52.456Z,977.92
2018-03-11T09:42:52.405Z,977.93
2018-03-11T09:43:52.398Z,977.96
2018-03-11T09:44:52.399Z,977.98
2018-03-11T09:45:52.385Z,978.06
2018-03-11T09:46:52.374Z,978.07
2018-03-11T09:47:52.370Z,978.05
2018-03-11T09:48:52.360Z,978.14
2018-03-11T09:49:52.601Z,978.14
2018-03-11T09:50:52.350Z,978.08
2018-03-11T09:51:52.338Z,978.14
2018-03-11T09:52:52.382Z,978.11
2018-03-11T09:53:52.323Z,978.10
2018-03-11T09:54:52.315Z,978.13
2018-03-11T09:55:52.356Z,978.09
2018-03-11T09:56:52.323Z,978.11
2018-03-11T09:57:52.294Z,978.11
2018-03-11T09:58:52.287Z,978.27
2018-03-11T09:59:52.282Z,978.18
2018-03-11T10:00:52.274Z,978.13
2018-03-11T10:01:52.266Z,978.21
2018-03-11T10:02:52.259Z,978.24
2018-03-11T10:03:52.477Z,978.24
2018-03-11T10:04:52.247Z,978.19
2018-03-11T10:05:52.241Z,978.33
2018-03-11T10:07:52.225Z,978.30
2018-03-11T10:08:52.306Z,978.25
2018-03-11T10:09:52.212Z,978.45
2018-03-11T10:10:52.206Z,978.40
2018-03-11T10:11:52.400Z,978.40
2018-03-11T10:12:52.190Z,978.36
2018-03-11T10:13:52.185Z,978.38
2018-03-11T10:14:52.182Z,978.38
2018-03-11T10:15:52.169Z,978.38
2018-03-11T10:16:52.163Z,978.48
2018-03-11T10:17:52.161Z,978.42
2018-03-11T10:18:52.152Z,978.47
2018-03-11T10:19:52.142Z,978.56
2018-03-11T10:20:52.136Z,978.34
2018-03-11T10:21:52.181Z,978.49
2018-03-11T10:22:52.326Z,978.48
2018-03-11T10:23:52.116Z,978.31
2018-03-11T10:24:52.110Z,978.48
2018-03-11T10:25:52.306Z,978.52
2018-03-11T10:26:52.101Z,978.55
2018-03-11T10:27:52.090Z,978.48
2018-03-11T10:28:52.087Z,978.50
2018-03-11T10:29:52.077Z,978.49
2018-03-11T10:30:52.072Z,978.54
2018-03-11T10:31:52.066Z,978.53
2018-03-11T10:32:52.060Z,978.56
2018-03-11T10:33:52.056Z,978.62
2018-03-11T10:34:52.048Z,978.56
2018-03-11T10:35:52.040Z,978.59
2018-03-11T10:36:52.238Z,978.57
2018-03-11T10:37:52.035Z,978.62
2018-03-11T10:38:52.023Z,978.54
2018-03-11T10:39:52.048Z,978.63
2018-03-11T10:40:52.021Z,978.54
2018-03-11T10:41:52.006Z,978.54
2018-03-11T10:42:51.999Z,978.57
2018-03-11T10:43:52.002Z,978.52
2018-03-11T10:44:51.988Z,978.56
2018-03-11T10:45:51.982Z,978.58
2018-03-11T10:46:51.977Z,978.60
2018-03-11T10:47:52.058Z,978.57
2018-03-11T10:48:51.967Z,978.60
2018-03-11T10:49:51.962Z,978.58
2018-03-11T10:50:52.076Z,978.57
2018-03-11T10:51:51.949Z,978.54
2018-03-11T10:52:51.943Z,978.62
2018-03-11T10:53:51.951Z,978.64
2018-03-11T10:54:51.933Z,978.59
2018-03-11T10:55:51.928Z,978.57
2018-03-11T10:56:51.924Z,978.56
2018-03-11T10:57:51.917Z,978.65
2018-03-11T10:58:51.945Z,978.64
2018-03-11T10:59:51.909Z,978.64
2018-03-11T11:00:51.904Z,978.61
2018-03-11T11:02:51.890Z,978.65
2018-03-11T11:03:51.886Z,978.60
2018-03-11T11:04:51.905Z,978.71
2018-03-11T11:05:51.875Z,978.64
2018-03-11T11:06:51.869Z,978.58
2018-03-11T11:07:51.868Z,978.55
2018-03-11T11:09:51.856Z,978.69
2018-03-11T11:10:51.847Z,978.80
2018-03-11T11:11:51.876Z,978.73
2018-03-11T11:12:51.837Z,978.78
2018-03-11T11:13:51.832Z,978.81
2018-03-11T11:14:51.825Z,978.78
2018-03-11T11:15:51.820Z,978.73
2018-03-11T11:16:51.815Z,978.74
2018-03-11T11:17:51.808Z,978.80
2018-03-11T11:18:51.803Z,978.78
2018-03-11T11:19:52.046Z,978.87
2018-03-11T11:20:51.796Z,978.83
2018-03-11T11:21:51.786Z,978.89
2018-03-11T11:22:51.984Z,978.79
2018-03-11T11:23:51.781Z,978.83
2018-03-11T11:24:51.770Z,978.82
2018-03-11T11:25:51.789Z,978.86
2018-03-11T11:26:51.764Z,978.84
2018-03-11T11:27:51.756Z,978.87
2018-03-11T11:28:51.748Z,978.91
2018-03-11T11:29:51.742Z,978.82
2018-03-11T11:30:51.993Z,978.81
2018-03-11T11:31:51.732Z,978.73
2018-03-11T11:32:51.726Z,978.77
2018-03-11T11:33:51.784Z,978.70
2018-03-11T11:34:51.716Z,978.73
2018-03-11T11:35:51.710Z,978.80
2018-03-11T11:36:51.736Z,978.76
2018-03-11T11:37:51.697Z,978.83
2018-03-11T11:38:51.691Z,978.82
2018-03-11T11:39:51.685Z,978.78
2018-03-11T11:40:51.679Z,978.72
2018-03-11T11:41:51.672Z,978.72
2018-03-11T11:42:51.667Z,978.71
2018-03-11T11:43:51.661Z,978.71
2018-03-11T11:44:51.859Z,978.68
2018-03-11T11:45:51.648Z,978.74
2018-03-11T11:46:51.642Z,978.67
2018-03-11T11:47:51.842Z,978.73
2018-03-11T11:48:51.716Z,978.74
2018-03-11T11:49:51.623Z,978.78
2018-03-11T11:50:51.617Z,978.70
2018-03-11T11:51:51.611Z,978.69
2018-03-11T11:52:51.604Z,978.67
2018-03-11T11:53:51.598Z,978.75
2018-03-11T11:54:51.592Z,978.69
2018-03-11T11:55:51.792Z,978.72
2018-03-11T11:56:51.579Z,978.71
2018-03-11T11:57:51.573Z,978.68
2018-03-11T11:58:51.769Z,978.64
2018-03-11T11:59:51.562Z,978.66
2018-03-11T12:00:51.554Z,978.61
2018-03-11T12:01:51.575Z,978.53
2018-03-11T12:02:51.541Z,978.63
2018-03-11T12:03:51.538Z,978.57
2018-03-11T12:04:51.528Z,978.61
2018-03-11T12:05:51.521Z,978.57
2018-03-11T12:06:51.514Z,978.57
2018-03-11T12:07:51.508Z,978.54
2018-03-11T12:08:51.581Z,978.53
2018-03-11T12:09:51.498Z,978.45
2018-03-11T12:10:51.488Z,978.47
2018-03-11T12:11:51.508Z,978.43
2018-03-11T12:12:51.477Z,978.43
2018-03-11T12:13:51.467Z,978.48
2018-03-11T12:14:51.461Z,978.45
2018-03-11T12:15:51.455Z,978.45
2018-03-11T12:16:51.447Z,978.51
2018-03-11T12:17:51.441Z,978.50
2018-03-11T12:18:51.434Z,978.47
2018-03-11T12:19:51.501Z,978.43
2018-03-11T12:20:51.423Z,978.42
2018-03-11T12:21:51.413Z,978.40
2018-03-11T12:22:51.448Z,978.42
2018-03-11T12:23:51.403Z,978.40
2018-03-11T12:24:51.393Z,978.39
2018-03-11T12:25:51.387Z,978.38
2018-03-11T12:26:51.380Z,978.38
2018-03-11T12:27:51.388Z,978.39
2018-03-11T12:28:51.367Z,978.35
2018-03-11T12:29:51.359Z,978.38
2018-03-11T12:30:51.353Z,978.34
2018-03-11T12:31:51.347Z,978.38
2018-03-11T12:32:51.342Z,978.32
2018-03-11T12:33:51.536Z,978.30